Terminal Aerodrome Forecast
Issued by NWS New Orleans/Baton Rouge, LA

Home | Current Version | Previous Version | Text Only | Print | Product List | Glossary On
Versions: 1 2 3 4 5 6 7 8 9 10 11 12 13 14
000
FTUS44 KLIX 242320
TAFNEW
TAF
KNEW 242320Z 2500/2524 11015KT P6SM FEW035
     FM251000 15006KT P6SM SCT150
     FM251500 13007KT P6SM BKN090
     FM251700 12010KT P6SM SCT250=

USA.gov is the U.S. government's official web portal to all federal, state and local government web resources and services.